createdAt,value
2023-04-28T00:01:02.841Z,3.20
2023-04-28T00:03:35.720Z,2.53
2023-04-28T00:06:06.242Z,2.83
2023-04-28T00:08:36.601Z,2.50
2023-04-28T00:11:06.804Z,2.90
2023-04-28T00:13:36.829Z,2.75
2023-04-28T00:16:07.223Z,3.08
2023-04-28T00:18:39.908Z,2.88
2023-04-28T00:21:10.136Z,2.60
2023-04-28T00:23:40.311Z,2.88
2023-04-28T00:26:10.579Z,2.65
2023-04-28T00:28:41.425Z,2.60
2023-04-28T00:31:14.557Z,2.67
2023-04-28T00:33:47.797Z,2.90
2023-04-28T00:36:17.869Z,2.47
2023-04-28T00:38:47.921Z,2.40
2023-04-28T00:41:17.898Z,2.70
2023-04-28T00:43:49.250Z,3.17
2023-04-28T00:46:25.280Z,2.80
2023-04-28T00:48:58.540Z,2.58
2023-04-28T00:51:29.301Z,2.67
2023-04-28T00:54:00.138Z,2.78
2023-04-28T00:56:31.412Z,2.90
2023-04-28T00:59:01.736Z,2.53
2023-04-28T01:01:32.323Z,2.67
2023-04-28T01:04:05.360Z,3.00
2023-04-28T01:06:37.546Z,3.03
2023-04-28T01:09:07.782Z,3.83
2023-04-28T01:11:39.086Z,3.10
2023-04-28T01:14:11.775Z,2.47
2023-04-28T01:16:44.686Z,3.03
2023-04-28T01:19:23.084Z,3.38
2023-04-28T01:21:54.953Z,2.72
2023-04-28T01:24:29.176Z,2.60
2023-04-28T01:27:03.158Z,3.78
2023-04-28T01:29:33.154Z,2.55
2023-04-28T01:32:03.801Z,2.70
2023-04-28T01:34:33.953Z,2.85
2023-04-28T01:37:04.125Z,3.22
2023-04-28T01:39:37.684Z,3.65
2023-04-28T01:42:08.146Z,2.92
2023-04-28T01:44:38.197Z,3.38
2023-04-28T01:47:08.588Z,3.03
2023-04-28T01:49:38.964Z,2.80
2023-04-28T01:52:11.324Z,3.00
2023-04-28T01:54:43.934Z,2.70
2023-04-28T01:57:14.441Z,3.20
2023-04-28T01:59:45.762Z,3.08
2023-04-28T02:02:16.080Z,3.17
2023-04-28T02:04:46.367Z,2.80
2023-04-28T02:07:16.447Z,3.17
2023-04-28T02:09:49.337Z,2.80
2023-04-28T02:12:19.401Z,2.97
2023-04-28T02:14:49.412Z,2.85
2023-04-28T02:17:19.533Z,2.90
2023-04-28T02:19:49.566Z,2.92
2023-04-28T02:22:19.684Z,2.78
2023-04-28T02:24:52.465Z,3.03
2023-04-28T02:27:23.079Z,2.72
2023-04-28T02:29:53.284Z,2.88
2023-04-28T02:32:24.876Z,2.95
2023-04-28T02:34:56.663Z,2.72
2023-04-28T02:37:27.030Z,3.25
2023-04-28T02:39:59.668Z,3.70
2023-04-28T02:42:29.703Z,2.47
2023-04-28T02:44:59.721Z,3.10
2023-04-28T02:47:29.796Z,2.75
2023-04-28T02:49:59.854Z,2.95
2023-04-28T02:52:30.053Z,2.90
2023-04-28T02:55:03.922Z,2.95
2023-04-28T02:57:34.215Z,3.15
2023-04-28T03:00:05.628Z,2.53
2023-04-28T03:02:43.525Z,3.10
2023-04-28T03:05:13.666Z,2.90
2023-04-28T03:07:43.821Z,3.03
2023-04-28T03:10:16.674Z,3.38
2023-04-28T03:12:46.791Z,2.47
2023-04-28T03:15:16.878Z,3.33
2023-04-28T03:17:47.132Z,3.47
2023-04-28T03:20:17.355Z,3.22
2023-04-28T03:22:47.920Z,3.05
2023-04-28T03:25:20.977Z,3.47
2023-04-28T03:27:54.271Z,3.17
2023-04-28T03:30:25.352Z,3.15
2023-04-28T03:32:55.488Z,3.42
2023-04-28T03:35:25.655Z,3.35
2023-04-28T03:37:55.831Z,3.25
2023-04-28T03:40:28.964Z,2.58
2023-04-28T03:43:31.326Z,3.33
2023-04-28T03:46:15.052Z,3.00
2023-04-28T03:48:46.315Z,3.30
2023-04-28T03:51:16.753Z,3.25
2023-04-28T03:53:46.777Z,2.95
2023-04-28T03:56:19.677Z,3.97
2023-04-28T03:58:49.841Z,3.55
2023-04-28T04:01:20.223Z,2.90
2023-04-28T04:03:52.030Z,3.80
2023-04-28T04:06:22.495Z,3.10
2023-04-28T04:08:53.077Z,2.90
2023-04-28T04:11:25.844Z,3.53
2023-04-28T04:13:55.897Z,3.13
2023-04-28T04:16:29.704Z,3.50
2023-04-28T04:19:01.191Z,3.77
2023-04-28T04:21:44.736Z,3.25
2023-04-28T04:24:14.991Z,3.38
2023-04-28T04:26:48.286Z,3.10
2023-04-28T04:29:37.543Z,3.17
2023-04-28T04:32:14.024Z,3.30
2023-04-28T04:34:45.305Z,3.67
2023-04-28T04:37:15.423Z,3.60
2023-04-28T04:39:55.201Z,3.67
2023-04-28T04:42:27.838Z,3.83
2023-04-28T04:45:20.194Z,2.90
2023-04-28T04:47:50.578Z,3.60
2023-04-28T04:50:21.244Z,3.08
2023-04-28T04:52:51.404Z,2.83
2023-04-28T04:55:22.828Z,3.83
2023-04-28T04:57:55.478Z,3.85
2023-04-28T05:00:43.914Z,3.75
2023-04-28T05:03:15.051Z,3.67
2023-04-28T05:05:46.347Z,3.78
2023-04-28T05:08:23.394Z,3.58
2023-04-28T05:10:53.413Z,3.58
2023-04-28T05:13:26.208Z,3.70
2023-04-28T05:16:02.489Z,3.88
2023-04-28T05:18:56.284Z,3.90
2023-04-28T05:21:26.648Z,3.35
2023-04-28T05:23:57.578Z,3.63
2023-04-28T05:26:27.909Z,3.35
2023-04-28T05:29:04.231Z,3.00
2023-04-28T05:31:34.430Z,3.67
2023-04-28T05:34:04.719Z,4.10
2023-04-28T05:36:34.918Z,3.90
2023-04-28T05:39:05.417Z,3.80
2023-04-28T05:41:35.533Z,4.13
2023-04-28T05:44:08.782Z,3.85
2023-04-28T05:46:40.087Z,3.13
2023-04-28T05:49:11.769Z,4.22
2023-04-28T05:51:42.700Z,3.72
2023-04-28T05:54:12.813Z,3.78
2023-04-28T05:56:47.997Z,3.47
2023-04-28T05:59:20.817Z,4.20
2023-04-28T06:01:51.085Z,4.15
2023-04-28T06:04:21.631Z,3.65
2023-04-28T06:06:53.126Z,3.70
2023-04-28T06:09:23.194Z,4.22
2023-04-28T06:11:53.284Z,4.03
2023-04-28T06:14:26.296Z,4.05
2023-04-28T06:16:56.446Z,4.20
2023-04-28T06:19:26.525Z,3.58
2023-04-28T06:21:56.573Z,4.30
2023-04-28T06:24:26.868Z,3.88
2023-04-28T06:26:59.059Z,4.68
2023-04-28T06:29:32.279Z,3.97
2023-04-28T06:32:02.363Z,4.50
2023-04-28T06:34:33.023Z,4.68
2023-04-28T06:37:03.143Z,4.05
2023-04-28T06:39:33.225Z,4.15
2023-04-28T06:42:03.372Z,4.13
2023-04-28T06:44:39.063Z,4.32
2023-04-28T06:47:09.262Z,4.78
2023-04-28T06:49:44.126Z,4.38
2023-04-28T06:52:14.515Z,4.15
2023-04-28T06:54:44.744Z,4.63
2023-04-28T06:57:14.797Z,5.30
2023-04-28T06:59:47.396Z,5.22
2023-04-28T07:02:17.694Z,4.95
2023-04-28T07:04:48.474Z,5.07
2023-04-28T07:07:18.670Z,3.47
2023-04-28T07:09:48.729Z,4.55
2023-04-28T07:12:18.774Z,4.53
2023-04-28T07:14:51.807Z,5.45
2023-04-28T07:17:22.149Z,5.10
2023-04-28T07:19:52.797Z,4.85
2023-04-28T07:22:22.868Z,5.38
2023-04-28T07:24:52.952Z,6.05
2023-04-28T07:27:23.447Z,5.30
2023-04-28T07:29:56.137Z,5.00
2023-04-28T07:32:26.220Z,4.78
2023-04-28T07:34:56.320Z,5.55
2023-04-28T07:37:26.332Z,5.15
2023-04-28T07:39:56.345Z,5.55
2023-04-28T07:42:27.544Z,5.38
2023-04-28T07:45:00.609Z,6.07
2023-04-28T07:47:30.687Z,6.38
2023-04-28T07:50:03.690Z,6.13
2023-04-28T07:52:34.262Z,6.53
2023-04-28T07:55:04.720Z,6.07
2023-04-28T07:57:35.101Z,6.22
2023-04-28T08:00:09.891Z,6.35
2023-04-28T08:02:42.986Z,6.47
2023-04-28T08:05:13.456Z,6.85
2023-04-28T08:07:43.723Z,5.85
2023-04-28T08:10:14.376Z,6.40
2023-04-28T08:12:45.400Z,6.32
2023-04-28T08:15:18.577Z,6.05
2023-04-28T08:17:48.884Z,6.78
2023-04-28T08:20:21.629Z,6.53
2023-04-28T08:25:23.784Z,6.80
2023-04-28T08:27:57.147Z,6.90
2023-04-28T08:30:30.237Z,8.55
2023-04-28T08:33:00.550Z,7.70
2023-04-28T08:35:30.644Z,8.70
2023-04-28T08:38:00.768Z,7.85
2023-04-28T08:40:31.637Z,7.57
2023-04-28T08:43:02.565Z,8.10
2023-04-28T08:45:43.659Z,8.20
2023-04-28T08:48:22.259Z,9.90
2023-04-28T08:50:55.006Z,8.52
2023-04-28T08:53:28.276Z,9.35
2023-04-28T08:56:00.205Z,9.57
2023-04-28T08:58:31.534Z,9.07
2023-04-28T09:01:05.103Z,9.43
2023-04-28T09:03:35.593Z,9.10
2023-04-28T09:06:06.591Z,8.68
2023-04-28T09:08:36.710Z,9.30
2023-04-28T09:11:11.355Z,8.13
2023-04-28T09:13:41.432Z,8.30
2023-04-28T09:16:14.590Z,9.30
2023-04-28T09:18:59.853Z,9.25
2023-04-28T09:21:29.844Z,8.98
2023-04-28T09:23:59.882Z,8.27
2023-04-28T09:26:29.903Z,8.90
2023-04-28T09:29:15.793Z,7.35
2023-04-28T09:31:48.812Z,8.25
2023-04-28T09:34:19.085Z,9.13
2023-04-28T09:36:49.249Z,8.57
2023-04-28T09:39:31.574Z,8.60
2023-04-28T09:42:03.694Z,7.68
2023-04-28T09:44:33.759Z,9.07
2023-04-28T09:47:23.572Z,9.10
2023-04-28T09:49:58.015Z,8.95
2023-04-28T09:52:28.250Z,9.50
2023-04-28T09:54:59.830Z,9.45
2023-04-28T09:57:34.396Z,8.82
2023-04-28T10:00:07.007Z,9.23
2023-04-28T10:02:43.739Z,10.75
2023-04-28T10:05:15.281Z,10.10
2023-04-28T10:07:46.220Z,9.70
2023-04-28T10:10:17.227Z,9.13
2023-04-28T10:12:47.283Z,9.93
2023-04-28T10:15:17.482Z,9.60
2023-04-28T10:17:53.458Z,10.05
2023-04-28T10:20:26.337Z,9.38
2023-04-28T10:23:05.447Z,9.70
2023-04-28T10:25:39.293Z,9.55
2023-04-28T10:28:10.759Z,7.70
2023-04-28T10:30:40.844Z,8.50
2023-04-28T10:33:31.511Z,8.13
2023-04-28T10:36:01.588Z,7.88
2023-04-28T10:38:31.644Z,7.68
2023-04-28T10:41:03.281Z,8.10
2023-04-28T10:43:38.225Z,7.82
2023-04-28T10:46:10.095Z,7.90
2023-04-28T10:49:00.779Z,8.75
2023-04-28T10:51:39.437Z,8.45
2023-04-28T10:54:22.641Z,8.35
2023-04-28T10:57:22.928Z,7.93
2023-04-28T10:59:54.414Z,8.18
2023-04-28T11:02:44.431Z,8.35
2023-04-28T11:05:22.244Z,8.45
2023-04-28T11:08:32.070Z,8.65
2023-04-28T11:11:21.357Z,7.20
2023-04-28T11:13:52.097Z,7.63
2023-04-28T11:16:24.603Z,7.28
2023-04-28T11:19:14.288Z,7.95
2023-04-28T11:21:47.142Z,7.75
2023-04-28T11:24:17.690Z,7.47
2023-04-28T11:26:48.088Z,7.63
2023-04-28T11:29:18.226Z,6.93
2023-04-28T11:31:53.204Z,6.40
2023-04-28T11:34:24.415Z,7.10
2023-04-28T11:36:57.248Z,7.03
2023-04-28T11:39:32.326Z,6.82
2023-04-28T11:42:03.810Z,7.22
2023-04-28T11:44:34.583Z,6.40
2023-04-28T11:47:06.925Z,6.70
2023-04-28T11:49:46.335Z,8.23
2023-04-28T11:52:20.038Z,8.40
2023-04-28T11:54:56.827Z,7.20
2023-04-28T11:57:27.094Z,6.30
2023-04-28T11:59:57.148Z,6.53
2023-04-28T12:02:31.963Z,6.95
2023-04-28T12:05:09.296Z,5.82
2023-04-28T12:07:46.971Z,6.10
2023-04-28T12:10:19.942Z,6.28
2023-04-28T12:12:53.010Z,6.33
2023-04-28T12:15:25.590Z,6.30
2023-04-28T12:17:55.687Z,7.18
2023-04-28T12:20:39.586Z,6.70
2023-04-28T12:23:12.473Z,6.60
2023-04-28T12:25:49.314Z,6.38
2023-04-28T12:28:19.330Z,7.22
2023-04-28T12:30:49.333Z,6.47
2023-04-28T12:33:27.232Z,6.63
2023-04-28T12:36:04.383Z,7.03
2023-04-28T12:38:50.729Z,6.10
2023-04-28T12:41:20.713Z,5.63
2023-04-28T12:43:50.763Z,6.40
2023-04-28T12:46:20.885Z,6.50
2023-04-28T12:48:51.390Z,5.70
2023-04-28T12:51:21.908Z,6.38
2023-04-28T12:53:54.577Z,5.90
2023-04-28T12:56:24.905Z,5.88
2023-04-28T12:58:54.956Z,5.63
2023-04-28T13:01:25.291Z,6.22
2023-04-28T13:03:55.394Z,6.38
2023-04-28T13:06:25.599Z,6.25
2023-04-28T13:08:58.242Z,6.50
2023-04-28T13:11:28.895Z,6.35
2023-04-28T13:13:59.593Z,6.10
2023-04-28T13:16:31.239Z,6.70
2023-04-28T13:19:01.491Z,5.93
2023-04-28T13:21:32.185Z,6.07
2023-04-28T13:24:04.876Z,5.55
2023-04-28T13:26:34.920Z,5.93
2023-04-28T13:29:05.171Z,5.78
2023-04-28T13:31:35.302Z,5.65
2023-04-28T13:34:06.270Z,5.82
2023-04-28T13:36:36.440Z,6.50
2023-04-28T13:39:11.672Z,5.60
2023-04-28T13:41:41.684Z,5.68
2023-04-28T13:44:12.283Z,5.43
2023-04-28T13:46:42.326Z,6.35
2023-04-28T13:49:13.096Z,5.88
2023-04-28T13:51:43.125Z,6.47
2023-04-28T13:54:15.772Z,5.93
2023-04-28T13:56:45.988Z,6.22
2023-04-28T13:59:16.892Z,5.45
2023-04-28T14:01:46.960Z,4.63
2023-04-28T14:04:17.138Z,5.40
2023-04-28T14:06:47.420Z,5.82
2023-04-28T14:09:20.048Z,5.05
2023-04-28T14:11:50.093Z,4.70
2023-04-28T14:14:20.227Z,4.80
2023-04-28T14:16:50.941Z,4.60
2023-04-28T14:19:21.266Z,4.00
2023-04-28T14:21:51.565Z,4.28
2023-04-28T14:24:24.362Z,3.80
2023-04-28T14:26:55.666Z,4.95
2023-04-28T14:29:25.675Z,3.97
2023-04-28T14:31:55.670Z,4.13
2023-04-28T14:34:25.720Z,5.30
2023-04-28T14:36:55.833Z,5.85
2023-04-28T14:39:28.755Z,5.07
2023-04-28T14:41:58.890Z,3.80
2023-04-28T14:44:28.864Z,3.53
2023-04-28T14:46:59.246Z,3.67
2023-04-28T14:49:29.514Z,3.72
2023-04-28T14:52:00.956Z,3.75
2023-04-28T14:54:33.729Z,3.40
2023-04-28T14:57:04.291Z,4.07
2023-04-28T14:59:35.697Z,4.05
2023-04-28T15:02:06.264Z,3.80
2023-04-28T15:04:39.608Z,3.72
2023-04-28T15:07:10.431Z,4.10
2023-04-28T15:09:44.065Z,4.18
2023-04-28T15:12:14.141Z,3.88
2023-04-28T15:14:44.398Z,2.92
2023-04-28T15:17:14.455Z,3.90
2023-04-28T15:19:44.523Z,3.58
2023-04-28T15:22:14.596Z,3.35
2023-04-28T15:24:47.543Z,2.85
2023-04-28T15:27:18.030Z,2.70
2023-04-28T15:29:48.094Z,3.25
2023-04-28T15:32:18.396Z,2.50
2023-04-28T15:34:49.173Z,3.63
2023-04-28T15:37:45.049Z,2.78
2023-04-28T15:40:19.467Z,3.25
2023-04-28T15:42:53.092Z,2.78
2023-04-28T15:45:24.421Z,3.30
2023-04-28T15:47:55.197Z,3.15
2023-04-28T15:50:25.517Z,3.60
2023-04-28T15:52:56.213Z,2.85
2023-04-28T15:55:28.909Z,3.45
2023-04-28T15:57:59.342Z,2.78
2023-04-28T16:00:29.415Z,3.00
2023-04-28T16:03:01.525Z,2.78
2023-04-28T16:05:32.118Z,3.20
2023-04-28T16:08:02.093Z,3.40
2023-04-28T16:10:34.817Z,3.28
2023-04-28T16:13:05.424Z,3.22
2023-04-28T16:15:35.607Z,3.63
2023-04-28T16:18:08.636Z,4.18
2023-04-28T16:20:38.723Z,3.10
2023-04-28T16:23:09.615Z,3.38
2023-04-28T16:25:42.343Z,7.30
2023-04-28T16:28:12.373Z,3.80
2023-04-28T16:30:42.413Z,4.68
2023-04-28T16:33:12.499Z,8.68
2023-04-28T16:35:42.503Z,8.27
2023-04-28T16:38:13.553Z,6.20
2023-04-28T16:43:22.208Z,3.38
2023-04-28T16:45:52.353Z,2.92
2023-04-28T16:48:23.853Z,3.65
2023-04-28T16:50:54.307Z,3.58
2023-04-28T16:53:24.679Z,3.63
2023-04-28T16:55:54.971Z,3.10
2023-04-28T16:58:27.616Z,3.20
2023-04-28T17:00:57.984Z,2.75
2023-04-28T17:03:28.514Z,2.88
2023-04-28T17:05:59.546Z,3.00
2023-04-28T17:08:29.869Z,3.13
2023-04-28T17:11:00.227Z,2.00
2023-04-28T17:13:34.223Z,3.08
2023-04-28T17:18:34.676Z,2.38
2023-04-28T17:21:05.630Z,2.85
2023-04-28T17:23:35.908Z,2.65
2023-04-28T17:26:06.824Z,2.55
2023-04-28T17:28:41.035Z,2.30
2023-04-28T17:31:13.641Z,2.30
2023-04-28T17:33:43.864Z,2.42
2023-04-28T17:36:13.865Z,2.33
2023-04-28T17:38:44.208Z,1.80
2023-04-28T17:41:15.302Z,2.20
2023-04-28T17:43:48.601Z,1.58
2023-04-28T17:46:19.141Z,1.48
2023-04-28T17:48:49.652Z,1.27
2023-04-28T17:51:19.994Z,0.90
2023-04-28T17:53:50.669Z,0.35
2023-04-28T17:56:20.930Z,0.75
2023-04-28T17:58:53.837Z,0.80
2023-04-28T18:01:24.168Z,0.57
2023-04-28T18:03:55.872Z,0.80
2023-04-28T18:06:26.206Z,0.40
2023-04-28T18:08:56.496Z,1.05
2023-04-28T18:11:28.097Z,0.90
2023-04-28T18:14:01.217Z,0.98
2023-04-28T18:16:31.580Z,1.13
2023-04-28T18:19:01.919Z,1.10
2023-04-28T18:21:32.388Z,1.05
2023-04-28T18:24:03.089Z,0.85
2023-04-28T18:26:33.404Z,0.80
2023-04-28T18:29:06.297Z,0.50
2023-04-28T18:31:36.848Z,0.88
2023-04-28T18:34:07.430Z,1.30
2023-04-28T18:36:38.426Z,1.48
2023-04-28T18:39:09.253Z,2.13
2023-04-28T18:41:40.306Z,2.33
2023-04-28T18:44:13.430Z,2.70
2023-04-28T18:46:43.947Z,3.60
2023-04-28T18:49:14.795Z,2.30
2023-04-28T18:51:45.098Z,3.00
2023-04-28T18:54:16.501Z,2.40
2023-04-28T18:56:48.146Z,2.75
2023-04-28T18:59:21.111Z,2.20
2023-04-28T19:01:51.448Z,2.33
2023-04-28T19:04:23.035Z,2.80
2023-04-28T19:06:53.666Z,2.05
2023-04-28T19:09:24.090Z,1.70
2023-04-28T19:11:54.471Z,2.10
2023-04-28T19:14:27.353Z,2.22
2023-04-28T19:16:57.711Z,3.47
2023-04-28T19:19:28.062Z,3.30
2023-04-28T19:21:58.384Z,4.22
2023-04-28T19:24:29.435Z,5.18
2023-04-28T19:27:01.807Z,5.43
2023-04-28T19:29:34.715Z,4.32
2023-04-28T19:32:05.007Z,3.13
2023-04-28T19:34:35.300Z,5.07
2023-04-28T19:37:10.028Z,4.07
2023-04-28T19:39:40.322Z,5.72
2023-04-28T19:42:10.727Z,3.92
2023-04-28T19:44:43.875Z,3.17
2023-04-28T19:47:14.779Z,2.00
2023-04-28T19:49:45.257Z,1.30
2023-04-28T19:52:15.799Z,1.40
2023-04-28T19:54:46.217Z,1.65
2023-04-28T19:57:16.538Z,1.50
2023-04-28T19:59:49.847Z,1.83
2023-04-28T20:02:21.343Z,1.88
2023-04-28T20:04:52.063Z,1.67
2023-04-28T20:07:22.541Z,1.98
2023-04-28T20:09:52.893Z,1.60
2023-04-28T20:12:23.269Z,1.83
2023-04-28T20:14:56.165Z,1.55
2023-04-28T20:17:26.751Z,1.50
2023-04-28T20:19:57.067Z,2.15
2023-04-28T20:22:27.432Z,1.95
2023-04-28T20:25:00.658Z,2.03
2023-04-28T20:27:30.994Z,2.00
2023-04-28T20:30:03.922Z,1.70
2023-04-28T20:32:36.932Z,1.70
2023-04-28T20:35:07.751Z,1.40
2023-04-28T20:37:38.056Z,1.83
2023-04-28T20:40:10.332Z,2.00
2023-04-28T20:42:40.802Z,1.73
2023-04-28T20:45:14.312Z,1.50
2023-04-28T20:47:45.424Z,1.52
2023-04-28T20:50:15.849Z,1.65
2023-04-28T20:52:46.967Z,1.52
2023-04-28T20:55:17.491Z,1.50
2023-04-28T20:57:47.824Z,1.52
2023-04-28T21:00:23.831Z,1.50
2023-04-28T21:02:54.590Z,1.50
2023-04-28T21:05:25.069Z,1.90
2023-04-28T21:07:55.437Z,1.77
2023-04-28T21:10:25.810Z,1.95
2023-04-28T21:12:56.155Z,1.55
2023-04-28T21:15:29.130Z,1.83
2023-04-28T21:17:59.643Z,1.95
2023-04-28T21:20:30.083Z,1.73
2023-04-28T21:23:00.663Z,2.28
2023-04-28T21:25:31.162Z,1.88
2023-04-28T21:28:01.996Z,1.80
2023-04-28T21:30:35.044Z,1.80
2023-04-28T21:33:05.404Z,1.83
2023-04-28T21:35:35.742Z,1.30
2023-04-28T21:38:06.061Z,1.40
2023-04-28T21:40:36.358Z,1.65
2023-04-28T21:43:06.878Z,1.40
2023-04-28T21:45:39.774Z,1.35
2023-04-28T21:48:11.223Z,1.30
2023-04-28T21:50:41.590Z,1.20
2023-04-28T21:53:11.902Z,0.93
2023-04-28T21:55:43.125Z,1.40
2023-04-28T21:58:13.426Z,0.80
2023-04-28T22:00:47.350Z,0.80
2023-04-28T22:03:18.150Z,1.00
2023-04-28T22:05:48.664Z,1.02
2023-04-28T22:08:19.611Z,1.20
2023-04-28T22:10:49.970Z,1.00
2023-04-28T22:13:22.205Z,0.77
2023-04-28T22:15:56.366Z,0.93
2023-04-28T22:18:26.704Z,0.80
2023-04-28T22:20:57.074Z,0.82
2023-04-28T22:23:27.388Z,0.70
2023-04-28T22:25:57.668Z,1.05
2023-04-28T22:28:27.961Z,0.60
2023-04-28T22:31:00.936Z,0.88
2023-04-28T22:33:31.372Z,0.80
2023-04-28T22:36:01.867Z,0.82
2023-04-28T22:38:32.198Z,0.77
2023-04-28T22:41:02.743Z,0.88
2023-04-28T22:43:33.121Z,0.93
2023-04-28T22:46:06.249Z,1.27
2023-04-28T22:48:36.803Z,0.57
2023-04-28T22:51:07.260Z,0.80
2023-04-28T22:53:37.548Z,0.70
2023-04-28T22:56:08.121Z,0.90
2023-04-28T22:58:38.547Z,0.68
2023-04-28T23:01:11.865Z,0.80
2023-04-28T23:03:42.473Z,0.38
2023-04-28T23:06:12.945Z,0.85
2023-04-28T23:08:43.312Z,0.73
2023-04-28T23:11:13.612Z,0.60
2023-04-28T23:13:43.969Z,0.70
2023-04-28T23:16:16.938Z,0.40
2023-04-28T23:18:47.429Z,0.40
2023-04-28T23:21:17.722Z,0.50
2023-04-28T23:23:48.142Z,0.60
2023-04-28T23:26:18.482Z,0.93
2023-04-28T23:28:48.812Z,0.88
2023-04-28T23:31:21.716Z,0.85
2023-04-28T23:33:52.322Z,0.60
2023-04-28T23:36:22.580Z,0.70
2023-04-28T23:38:53.046Z,0.90
2023-04-28T23:41:23.332Z,0.70
2023-04-28T23:43:53.994Z,0.70
2023-04-28T23:46:29.168Z,1.02
2023-04-28T23:48:59.533Z,0.77
2023-04-28T23:51:30.212Z,0.85
2023-04-28T23:54:01.721Z,0.55
2023-04-28T23:56:32.094Z,0.82
2023-04-28T23:59:02.610Z,0.60
